createdAt,value
2018-02-24T00:00:32.715Z,24.70
2018-02-24T00:01:32.707Z,31.60
2018-02-24T00:02:32.710Z,30.20
2018-02-24T00:03:32.729Z,25.20
2018-02-24T00:04:32.717Z,31.90
2018-02-24T00:05:32.717Z,25.70
2018-02-24T00:06:32.726Z,27.30
2018-02-24T00:07:32.722Z,28.80
2018-02-24T00:08:32.726Z,24.90
2018-02-24T00:09:32.730Z,26.30
2018-02-24T00:10:32.740Z,27.00
2018-02-24T00:11:32.737Z,27.10
2018-02-24T00:12:32.837Z,28.70
2018-02-24T00:13:32.757Z,26.70
2018-02-24T00:14:32.811Z,27.40
2018-02-24T00:15:32.760Z,34.30
2018-02-24T00:16:32.749Z,28.90
2018-02-24T00:17:32.743Z,24.20
2018-02-24T00:18:32.754Z,22.80
2018-02-24T00:19:32.749Z,23.40
2018-02-24T00:20:32.763Z,23.30
2018-02-24T00:21:32.764Z,26.90
2018-02-24T00:22:32.771Z,28.60
2018-02-24T00:23:32.766Z,28.40
2018-02-24T00:24:32.774Z,28.10
2018-02-24T00:25:32.778Z,26.30
2018-02-24T00:26:32.782Z,27.60
2018-02-24T00:27:32.786Z,27.70
2018-02-24T00:28:32.785Z,29.30
2018-02-24T00:29:32.784Z,26.50
2018-02-24T00:30:33.768Z,25.50
2018-02-24T00:31:32.789Z,24.50
2018-02-24T00:32:32.794Z,28.80
2018-02-24T00:33:32.799Z,27.30
2018-02-24T00:34:32.799Z,25.70
2018-02-24T00:35:32.811Z,34.00
2018-02-24T00:36:32.802Z,28.20
2018-02-24T00:37:32.813Z,22.90
2018-02-24T00:38:32.811Z,26.00
2018-02-24T00:39:32.828Z,26.40
2018-02-24T00:40:32.813Z,22.30
2018-02-24T00:41:32.826Z,26.00
2018-02-24T00:42:32.817Z,27.00
2018-02-24T00:43:32.832Z,29.70
2018-02-24T00:44:32.822Z,25.30
2018-02-24T00:45:32.827Z,30.60
2018-02-24T00:46:32.842Z,27.70
2018-02-24T00:47:32.832Z,26.90
2018-02-24T00:48:32.826Z,27.30
2018-02-24T00:49:32.832Z,25.60
2018-02-24T00:50:32.837Z,25.60
2018-02-24T00:51:32.845Z,28.40
2018-02-24T00:52:32.843Z,23.50
2018-02-24T00:53:32.911Z,25.90
2018-02-24T00:54:32.850Z,26.50
2018-02-24T00:55:32.857Z,31.60
2018-02-24T00:56:32.864Z,30.90
2018-02-24T00:57:32.868Z,34.60
2018-02-24T00:58:32.880Z,32.10
2018-02-24T00:59:32.863Z,37.90
2018-02-24T01:00:32.861Z,28.50
2018-02-24T01:01:32.870Z,31.00
2018-02-24T01:02:32.871Z,26.10
2018-02-24T01:03:32.876Z,23.10
2018-02-24T01:04:32.864Z,26.80
2018-02-24T01:05:32.876Z,29.90
2018-02-24T01:06:32.954Z,28.70
2018-02-24T01:07:32.883Z,24.00
2018-02-24T01:08:32.881Z,27.50
2018-02-24T01:09:32.882Z,27.70
2018-02-24T01:10:32.887Z,23.50
2018-02-24T01:11:32.947Z,28.90
2018-02-24T01:12:32.898Z,28.80
2018-02-24T01:13:32.893Z,37.00
2018-02-24T01:14:32.901Z,33.00
2018-02-24T01:15:32.904Z,28.30
2018-02-24T01:16:32.904Z,34.70
2018-02-24T01:17:32.906Z,29.70
2018-02-24T01:18:32.917Z,30.20
2018-02-24T01:19:32.914Z,24.20
2018-02-24T01:20:32.917Z,25.50
2018-02-24T01:21:32.917Z,27.00
2018-02-24T01:22:32.927Z,24.20
2018-02-24T01:23:32.928Z,23.90
2018-02-24T01:24:32.963Z,24.30
2018-02-24T01:25:32.929Z,25.10
2018-02-24T01:26:32.936Z,27.10
2018-02-24T01:27:32.948Z,26.60
2018-02-24T01:28:32.936Z,27.80
2018-02-24T01:29:32.936Z,25.10
2018-02-24T01:30:32.940Z,28.50
2018-02-24T01:31:32.941Z,29.20
2018-02-24T01:32:32.945Z,28.80
2018-02-24T01:33:32.936Z,27.40
2018-02-24T01:34:32.953Z,24.00
2018-02-24T01:35:32.953Z,30.40
2018-02-24T01:36:32.952Z,24.00
2018-02-24T01:37:32.961Z,23.30
2018-02-24T01:38:32.970Z,24.20
2018-02-24T01:39:32.960Z,26.40
2018-02-24T01:40:32.961Z,27.90
2018-02-24T01:41:32.977Z,27.00
2018-02-24T01:42:32.981Z,30.40
2018-02-24T01:43:32.971Z,29.90
2018-02-24T01:44:32.987Z,26.80
2018-02-24T01:45:32.980Z,25.60
2018-02-24T01:46:32.979Z,28.20
2018-02-24T01:47:32.989Z,29.90
2018-02-24T01:48:32.985Z,26.40
2018-02-24T01:49:32.990Z,25.20
2018-02-24T01:50:32.992Z,27.70
2018-02-24T01:51:32.980Z,24.80
2018-02-24T01:52:32.981Z,25.00
2018-02-24T01:53:32.984Z,24.30
2018-02-24T01:54:32.991Z,25.30
2018-02-24T01:55:32.998Z,25.10
2018-02-24T01:56:33.001Z,24.10
2018-02-24T01:57:33.000Z,25.70
2018-02-24T01:58:33.009Z,24.60
2018-02-24T01:59:33.013Z,26.20
2018-02-24T02:00:33.026Z,25.70
2018-02-24T02:01:33.011Z,23.10
2018-02-24T02:02:33.017Z,28.30
2018-02-24T02:03:33.014Z,25.70
2018-02-24T02:04:33.017Z,24.20
2018-02-24T02:05:33.022Z,25.60
2018-02-24T02:06:33.035Z,26.30
2018-02-24T02:07:33.040Z,23.20
2018-02-24T02:08:33.035Z,26.80
2018-02-24T02:09:33.063Z,29.30
2018-02-24T02:10:33.037Z,23.00
2018-02-24T02:11:33.042Z,23.00
2018-02-24T02:12:33.027Z,27.20
2018-02-24T02:13:33.031Z,25.20
2018-02-24T02:14:33.046Z,30.90
2018-02-24T02:15:33.039Z,26.90
2018-02-24T02:16:33.045Z,23.40
2018-02-24T02:17:33.041Z,26.10
2018-02-24T02:18:33.046Z,23.50
2018-02-24T02:19:33.055Z,23.10
2018-02-24T02:20:33.061Z,25.60
2018-02-24T02:21:33.738Z,25.30
2018-02-24T02:22:33.071Z,27.90
2018-02-24T02:23:33.079Z,24.60
2018-02-24T02:24:33.071Z,26.30
2018-02-24T02:25:33.067Z,24.70
2018-02-24T02:26:33.070Z,23.80
2018-02-24T02:27:33.070Z,23.90
2018-02-24T02:28:33.078Z,28.70
2018-02-24T02:29:33.094Z,24.50
2018-02-24T02:30:33.084Z,28.60
2018-02-24T02:31:33.082Z,26.20
2018-02-24T02:32:33.091Z,25.10
2018-02-24T02:33:33.082Z,23.30
2018-02-24T02:34:33.088Z,22.40
2018-02-24T02:35:33.080Z,23.60
2018-02-24T02:36:33.085Z,26.70
2018-02-24T02:37:33.089Z,23.70
2018-02-24T02:38:33.100Z,26.30
2018-02-24T02:39:33.102Z,26.80
2018-02-24T02:40:33.103Z,26.50
2018-02-24T02:41:33.115Z,25.30
2018-02-24T02:42:33.111Z,26.60
2018-02-24T02:43:33.108Z,26.10
2018-02-24T02:44:33.117Z,24.20
2018-02-24T02:45:33.113Z,23.80
2018-02-24T02:46:33.124Z,27.40
2018-02-24T02:47:33.118Z,23.80
2018-02-24T02:48:33.125Z,23.80
2018-02-24T02:49:33.108Z,26.00
2018-02-24T02:50:33.133Z,25.00
2018-02-24T02:51:33.130Z,23.60
2018-02-24T02:52:33.140Z,23.30
2018-02-24T02:53:33.124Z,25.10
2018-02-24T02:54:33.135Z,27.20
2018-02-24T02:55:33.141Z,24.50
2018-02-24T02:56:33.138Z,27.10
2018-02-24T02:57:33.147Z,24.90
2018-02-24T02:58:33.138Z,25.70
2018-02-24T02:59:33.141Z,24.30
2018-02-24T03:00:33.141Z,23.00
2018-02-24T03:01:33.149Z,24.50
2018-02-24T03:02:33.158Z,21.80
2018-02-24T03:03:33.148Z,28.40
2018-02-24T03:04:33.171Z,26.90
2018-02-24T03:05:33.167Z,24.50
2018-02-24T03:06:33.165Z,25.90
2018-02-24T03:07:33.160Z,22.20
2018-02-24T03:08:33.165Z,24.00
2018-02-24T03:09:33.169Z,22.60
2018-02-24T03:10:33.161Z,23.10
2018-02-24T03:11:33.169Z,22.50
2018-02-24T03:12:33.176Z,23.60
2018-02-24T03:13:33.171Z,25.00
2018-02-24T03:14:33.174Z,24.40
2018-02-24T03:15:33.180Z,23.90
2018-02-24T03:16:33.182Z,23.50
2018-02-24T03:17:33.183Z,23.40
2018-02-24T03:18:33.183Z,24.40
2018-02-24T03:19:33.185Z,22.90
2018-02-24T03:20:33.184Z,25.40
2018-02-24T03:21:33.195Z,23.10
2018-02-24T03:22:33.196Z,27.20
2018-02-24T03:23:33.189Z,25.70
2018-02-24T03:24:33.189Z,25.50
2018-02-24T03:25:33.196Z,25.50
2018-02-24T03:26:33.206Z,25.50
2018-02-24T03:27:33.217Z,25.10
2018-02-24T03:28:33.263Z,26.20
2018-02-24T03:29:33.205Z,27.10
2018-02-24T03:30:33.211Z,25.70
2018-02-24T03:31:33.253Z,23.20
2018-02-24T03:32:33.219Z,24.70
2018-02-24T03:33:33.214Z,26.70
2018-02-24T03:34:33.283Z,24.50
2018-02-24T03:35:33.222Z,23.30
2018-02-24T03:36:33.218Z,26.50
2018-02-24T03:37:33.217Z,26.20
2018-02-24T03:38:33.244Z,25.00
2018-02-24T03:39:33.233Z,24.10
2018-02-24T03:40:33.224Z,27.60
2018-02-24T03:41:33.232Z,25.90
2018-02-24T03:42:33.236Z,24.30
2018-02-24T03:43:33.235Z,24.70
2018-02-24T03:44:33.238Z,28.50
2018-02-24T03:45:33.231Z,25.50
2018-02-24T03:46:33.256Z,28.00
2018-02-24T03:47:33.242Z,24.80
2018-02-24T03:48:33.246Z,24.50
2018-02-24T03:49:33.248Z,23.00
2018-02-24T03:50:33.252Z,24.20
2018-02-24T03:51:33.253Z,25.00
2018-02-24T03:52:33.256Z,23.70
2018-02-24T03:53:33.260Z,24.50
2018-02-24T03:54:33.285Z,28.30
2018-02-24T03:55:33.254Z,25.90
2018-02-24T03:56:33.254Z,23.70
2018-02-24T03:57:33.263Z,25.70
2018-02-24T03:58:33.261Z,24.60
2018-02-24T03:59:33.298Z,23.90
2018-02-24T04:00:33.263Z,25.90
2018-02-24T04:01:33.282Z,24.40
2018-02-24T04:02:33.272Z,26.50
2018-02-24T04:03:33.275Z,27.50
2018-02-24T04:04:33.274Z,26.10
2018-02-24T04:05:33.278Z,29.10
2018-02-24T04:06:33.277Z,30.80
2018-02-24T04:07:33.281Z,27.40
2018-02-24T04:08:33.295Z,25.80
2018-02-24T04:09:34.237Z,26.00
2018-02-24T04:10:33.292Z,25.60
2018-02-24T04:11:33.301Z,23.80
2018-02-24T04:12:33.297Z,27.50
2018-02-24T04:13:33.302Z,25.50
2018-02-24T04:14:33.294Z,26.80
2018-02-24T04:15:33.304Z,25.20
2018-02-24T04:16:33.327Z,26.70
2018-02-24T04:17:33.309Z,23.00
2018-02-24T04:18:33.303Z,25.40
2018-02-24T04:19:33.310Z,27.30
2018-02-24T04:20:33.311Z,28.40
2018-02-24T04:21:33.299Z,27.40
2018-02-24T04:22:33.400Z,25.60
2018-02-24T04:23:33.316Z,28.00
2018-02-24T04:24:33.315Z,26.30
2018-02-24T04:25:33.326Z,25.00
2018-02-24T04:26:33.324Z,26.70
2018-02-24T04:27:33.327Z,27.60
2018-02-24T04:28:33.325Z,26.80
2018-02-24T04:29:33.328Z,30.00
2018-02-24T04:30:33.334Z,26.00
2018-02-24T04:31:33.334Z,30.50
2018-02-24T04:32:33.336Z,30.00
2018-02-24T04:33:33.338Z,26.10
2018-02-24T04:34:33.338Z,27.20
2018-02-24T04:35:33.342Z,26.80
2018-02-24T04:36:33.341Z,27.10
2018-02-24T04:37:33.340Z,29.60
2018-02-24T04:38:33.349Z,28.90
2018-02-24T04:39:33.353Z,28.10
2018-02-24T04:40:33.451Z,26.60
2018-02-24T04:41:33.355Z,27.00
2018-02-24T04:42:33.351Z,27.20
2018-02-24T04:43:33.350Z,28.50
2018-02-24T04:44:33.351Z,26.40
2018-02-24T04:45:33.364Z,26.60
2018-02-24T04:46:33.360Z,29.50
2018-02-24T04:47:33.364Z,29.50
2018-02-24T04:48:33.362Z,27.80
2018-02-24T04:49:33.364Z,30.10
2018-02-24T04:50:33.371Z,27.60
2018-02-24T04:51:33.364Z,27.60
2018-02-24T04:52:33.387Z,28.00
2018-02-24T04:53:33.371Z,25.30
2018-02-24T04:54:33.374Z,31.10
2018-02-24T04:55:33.377Z,25.80
2018-02-24T04:56:33.383Z,29.30
2018-02-24T04:57:33.380Z,26.00
2018-02-24T04:58:33.379Z,25.80
2018-02-24T04:59:33.392Z,26.90
2018-02-24T05:00:33.383Z,28.50
2018-02-24T05:01:33.387Z,28.60
2018-02-24T05:02:33.389Z,29.00
2018-02-24T05:03:33.409Z,31.10
2018-02-24T05:04:33.393Z,33.40
2018-02-24T05:05:33.385Z,27.30
2018-02-24T05:06:33.441Z,27.70
2018-02-24T05:07:33.401Z,27.00
2018-02-24T05:08:33.401Z,24.40
2018-02-24T05:09:33.403Z,29.80
2018-02-24T05:10:33.406Z,26.20
2018-02-24T05:11:33.402Z,28.30
2018-02-24T05:12:33.408Z,24.60
2018-02-24T05:13:33.403Z,26.70
2018-02-24T05:14:33.414Z,23.40
2018-02-24T05:15:33.419Z,26.80
2018-02-24T05:16:33.409Z,29.10
2018-02-24T05:17:33.418Z,24.00
2018-02-24T05:18:33.418Z,27.70
2018-02-24T05:19:33.421Z,27.50
2018-02-24T05:20:33.418Z,26.50
2018-02-24T05:21:33.417Z,26.80
2018-02-24T05:22:33.425Z,27.00
2018-02-24T05:23:33.427Z,28.30
2018-02-24T05:24:33.462Z,28.10
2018-02-24T05:25:33.432Z,29.80
2018-02-24T05:26:33.431Z,30.80
2018-02-24T05:27:33.442Z,26.40
2018-02-24T05:28:33.442Z,33.70
2018-02-24T05:29:33.445Z,27.20
2018-02-24T05:30:33.441Z,29.20
2018-02-24T05:31:33.444Z,29.50
2018-02-24T05:32:33.444Z,30.80
2018-02-24T05:33:33.446Z,26.60
2018-02-24T05:34:34.226Z,31.60
2018-02-24T05:35:33.452Z,28.00
2018-02-24T05:36:33.457Z,25.10
2018-02-24T05:37:33.473Z,26.70
2018-02-24T05:38:33.457Z,25.40
2018-02-24T05:39:33.461Z,26.60
2018-02-24T05:40:33.460Z,28.60
2018-02-24T05:41:33.459Z,26.10
2018-02-24T05:42:33.462Z,30.70
2018-02-24T05:43:33.466Z,31.10
2018-02-24T05:44:33.473Z,29.10
2018-02-24T05:45:33.466Z,29.10
2018-02-24T05:46:33.473Z,27.50
2018-02-24T05:47:34.220Z,29.60
2018-02-24T05:48:33.478Z,30.50
2018-02-24T05:49:33.484Z,27.20
2018-02-24T05:50:33.470Z,28.70
2018-02-24T05:51:33.492Z,27.70
2018-02-24T05:52:33.481Z,27.60
2018-02-24T05:53:33.471Z,27.10
2018-02-24T05:54:33.483Z,30.60
2018-02-24T05:55:33.483Z,30.70
2018-02-24T05:56:33.500Z,30.00
2018-02-24T05:57:33.495Z,26.70
2018-02-24T05:58:33.496Z,33.20
2018-02-24T05:59:33.494Z,33.30
2018-02-24T06:00:33.542Z,32.50
2018-02-24T06:01:33.498Z,28.90
2018-02-24T06:02:33.501Z,28.90
2018-02-24T06:03:33.497Z,27.80
2018-02-24T06:04:33.494Z,30.30
2018-02-24T06:05:33.503Z,27.60
2018-02-24T06:06:33.507Z,28.10
2018-02-24T06:07:33.510Z,27.70
2018-02-24T06:08:33.507Z,28.80
2018-02-24T06:09:33.511Z,42.00
2018-02-24T06:10:33.518Z,26.50
2018-02-24T06:11:33.515Z,27.70
2018-02-24T06:12:33.514Z,29.80
2018-02-24T06:13:33.517Z,28.10
2018-02-24T06:14:33.520Z,30.40
2018-02-24T06:15:33.516Z,29.30
2018-02-24T06:16:33.524Z,32.60
2018-02-24T06:17:33.532Z,31.00
2018-02-24T06:18:33.607Z,29.00
2018-02-24T06:19:33.524Z,31.00
2018-02-24T06:20:33.531Z,28.40
2018-02-24T06:21:33.531Z,29.50
2018-02-24T06:22:33.537Z,28.10
2018-02-24T06:23:33.534Z,32.20
2018-02-24T06:24:33.528Z,29.60
2018-02-24T06:25:33.537Z,29.20
2018-02-24T06:26:33.537Z,28.20
2018-02-24T06:27:33.546Z,28.80
2018-02-24T06:28:33.553Z,31.50
2018-02-24T06:29:33.547Z,29.40
2018-02-24T06:30:33.543Z,29.90
2018-02-24T06:31:33.600Z,29.00
2018-02-24T06:32:33.558Z,26.50
2018-02-24T06:33:33.550Z,32.00
2018-02-24T06:34:33.550Z,30.30
2018-02-24T06:35:33.558Z,29.70
2018-02-24T06:36:33.554Z,30.50
2018-02-24T06:37:33.556Z,30.40
2018-02-24T06:38:33.559Z,26.70
2018-02-24T06:39:33.608Z,37.90
2018-02-24T06:40:33.566Z,29.10
2018-02-24T06:41:33.551Z,37.30
2018-02-24T06:42:33.569Z,30.60
2018-02-24T06:43:33.565Z,28.50
2018-02-24T06:44:33.575Z,30.20
2018-02-24T06:45:33.568Z,30.30
2018-02-24T06:46:33.563Z,25.80
2018-02-24T06:47:33.584Z,29.20
2018-02-24T06:48:33.575Z,28.00
2018-02-24T06:49:33.572Z,29.80
2018-02-24T06:50:33.578Z,28.90
2018-02-24T06:51:33.572Z,29.20
2018-02-24T06:52:33.580Z,31.50
2018-02-24T06:53:33.582Z,30.00
2018-02-24T06:54:33.577Z,29.20
2018-02-24T06:55:33.585Z,28.10
2018-02-24T06:56:33.575Z,31.10
2018-02-24T06:57:33.585Z,29.20
2018-02-24T06:58:33.600Z,27.10
2018-02-24T06:59:33.584Z,27.00
2018-02-24T07:00:33.598Z,35.40
2018-02-24T07:01:33.613Z,28.30
2018-02-24T07:02:33.594Z,28.40
2018-02-24T07:03:33.610Z,29.90
2018-02-24T07:04:33.600Z,24.70
2018-02-24T07:05:33.603Z,28.10
2018-02-24T07:06:33.601Z,26.70
2018-02-24T07:07:33.620Z,25.70
2018-02-24T07:08:33.612Z,26.60
2018-02-24T07:09:33.608Z,27.00
2018-02-24T07:10:33.606Z,27.80
2018-02-24T07:11:33.611Z,39.70
2018-02-24T07:12:33.721Z,30.00
2018-02-24T07:13:33.625Z,31.10
2018-02-24T07:14:33.624Z,29.00
2018-02-24T07:15:33.626Z,28.00
2018-02-24T07:16:33.620Z,27.10
2018-02-24T07:17:33.628Z,27.30
2018-02-24T07:18:33.630Z,27.40
2018-02-24T07:19:33.636Z,30.50
2018-02-24T07:20:33.631Z,32.20
2018-02-24T07:21:33.636Z,29.80
2018-02-24T07:22:33.637Z,28.70
2018-02-24T07:23:33.640Z,28.70
2018-02-24T07:24:33.646Z,26.40
2018-02-24T07:25:33.646Z,27.90
2018-02-24T07:26:33.642Z,26.80
2018-02-24T07:27:33.648Z,27.40
2018-02-24T07:28:33.649Z,25.50
2018-02-24T07:29:33.646Z,26.60
2018-02-24T07:30:33.646Z,28.10
2018-02-24T07:31:33.649Z,27.50
2018-02-24T07:32:33.651Z,27.60
2018-02-24T07:33:33.655Z,28.30
2018-02-24T07:34:33.657Z,26.20
2018-02-24T07:35:33.670Z,25.30
2018-02-24T07:36:33.660Z,28.90
2018-02-24T07:37:33.667Z,22.60
2018-02-24T07:38:33.668Z,25.70
2018-02-24T07:39:33.673Z,24.10
2018-02-24T07:40:33.677Z,24.70
2018-02-24T07:41:33.675Z,21.30
2018-02-24T07:42:33.678Z,25.20
2018-02-24T07:43:33.683Z,24.00
2018-02-24T07:44:33.682Z,25.50
2018-02-24T07:45:33.683Z,25.20
2018-02-24T07:46:33.691Z,25.80
2018-02-24T07:47:33.706Z,26.00
2018-02-24T07:48:33.698Z,27.20
2018-02-24T07:49:33.693Z,23.50
2018-02-24T07:50:33.701Z,24.70
2018-02-24T07:51:33.701Z,24.40
2018-02-24T07:52:33.703Z,27.50
2018-02-24T07:53:33.708Z,25.70
2018-02-24T07:54:33.718Z,28.30
2018-02-24T07:55:33.728Z,23.80
2018-02-24T07:56:33.739Z,28.90
2018-02-24T07:57:33.721Z,25.80
2018-02-24T07:58:33.729Z,26.20
2018-02-24T07:59:33.728Z,23.60
2018-02-24T08:00:33.739Z,28.90
2018-02-24T08:01:33.744Z,26.10
2018-02-24T08:02:33.736Z,23.80
2018-02-24T08:03:33.754Z,26.10
2018-02-24T08:04:33.752Z,25.60
2018-02-24T08:05:33.759Z,31.70
2018-02-24T08:06:33.764Z,24.10
2018-02-24T08:07:33.789Z,25.00
2018-02-24T08:08:33.764Z,27.20
2018-02-24T08:09:33.784Z,26.90
2018-02-24T08:10:33.791Z,24.60
2018-02-24T08:11:33.799Z,22.90
2018-02-24T08:12:33.801Z,25.80
2018-02-24T08:13:33.808Z,24.10
2018-02-24T08:14:33.816Z,24.10
2018-02-24T08:15:33.826Z,28.20
2018-02-24T08:16:33.831Z,26.70
2018-02-24T08:17:33.873Z,25.10
2018-02-24T08:18:33.845Z,25.80
2018-02-24T08:19:33.856Z,28.00
2018-02-24T08:20:33.862Z,28.80
2018-02-24T08:21:33.870Z,24.20
2018-02-24T08:22:33.875Z,28.10
2018-02-24T08:23:33.882Z,26.30
2018-02-24T08:24:33.893Z,23.40
2018-02-24T08:25:33.896Z,25.60
2018-02-24T08:26:33.908Z,29.30
2018-02-24T08:27:33.918Z,22.70
2018-02-24T08:28:33.927Z,22.90
2018-02-24T08:29:33.941Z,27.30
2018-02-24T08:30:33.939Z,24.60
2018-02-24T08:31:33.965Z,29.00
2018-02-24T08:32:33.963Z,29.70
2018-02-24T08:33:33.970Z,24.60
2018-02-24T08:34:33.978Z,22.50
2018-02-24T08:35:33.995Z,24.70
2018-02-24T08:36:33.998Z,25.30
2018-02-24T08:37:34.014Z,21.70
2018-02-24T08:38:34.022Z,21.90
2018-02-24T08:39:34.042Z,21.60
2018-02-24T08:40:34.056Z,21.30
2018-02-24T08:41:34.057Z,21.00
2018-02-24T08:42:34.093Z,24.30
2018-02-24T08:43:34.075Z,22.60
2018-02-24T08:44:34.081Z,22.70
2018-02-24T08:45:34.102Z,23.80
2018-02-24T08:46:34.107Z,23.10
2018-02-24T08:47:34.107Z,23.90
2018-02-24T08:48:34.116Z,23.20
2018-02-24T08:49:34.127Z,20.80
2018-02-24T08:50:34.136Z,24.60
2018-02-24T08:51:34.150Z,24.80
2018-02-24T08:52:34.164Z,23.00
2018-02-24T08:53:34.187Z,23.50
2018-02-24T08:54:34.726Z,22.00
2018-02-24T08:55:34.203Z,25.50
2018-02-24T08:56:34.209Z,24.20
2018-02-24T08:57:34.226Z,21.00
2018-02-24T08:58:34.240Z,19.50
2018-02-24T08:59:34.254Z,19.40
2018-02-24T09:00:34.267Z,20.30
2018-02-24T09:01:34.259Z,18.90
2018-02-24T09:02:34.278Z,19.10
2018-02-24T09:03:34.310Z,15.70
2018-02-24T09:04:34.312Z,20.20
2018-02-24T09:05:34.324Z,19.00
2018-02-24T09:06:34.324Z,18.80
2018-02-24T09:07:34.334Z,18.00
2018-02-24T09:08:34.354Z,18.30
2018-02-24T09:09:34.363Z,25.00
2018-02-24T09:10:34.376Z,20.50
2018-02-24T09:11:34.408Z,16.00
2018-02-24T09:12:34.398Z,18.30
2018-02-24T09:13:34.417Z,17.00
2018-02-24T09:14:34.424Z,19.10
2018-02-24T09:15:34.442Z,20.10
2018-02-24T09:16:34.448Z,19.30
2018-02-24T09:17:34.457Z,18.80
2018-02-24T09:18:34.470Z,15.40
2018-02-24T09:19:34.485Z,16.00
2018-02-24T09:20:34.497Z,18.40
2018-02-24T09:21:34.513Z,18.60
2018-02-24T09:22:34.526Z,19.00
2018-02-24T09:23:34.532Z,16.80
2018-02-24T09:24:34.551Z,18.80
2018-02-24T09:25:34.564Z,17.40
2018-02-24T09:26:34.569Z,18.20
2018-02-24T09:27:34.639Z,19.10
2018-02-24T09:28:34.602Z,17.10
2018-02-24T09:29:34.616Z,18.00
2018-02-24T09:30:34.620Z,17.10
2018-02-24T09:31:34.634Z,16.30
2018-02-24T09:32:34.664Z,17.20
2018-02-24T09:33:34.653Z,18.50
2018-02-24T09:34:34.676Z,17.80
2018-02-24T09:35:34.692Z,17.60
2018-02-24T09:36:34.703Z,14.80
2018-02-24T09:37:34.735Z,20.60
2018-02-24T09:38:34.732Z,18.50
2018-02-24T09:39:34.740Z,15.60
2018-02-24T09:40:34.754Z,15.40
2018-02-24T09:41:34.764Z,20.00
2018-02-24T09:42:34.820Z,15.40
2018-02-24T09:43:34.791Z,16.30
2018-02-24T09:44:34.816Z,16.70
2018-02-24T09:45:34.812Z,17.60
2018-02-24T09:46:34.838Z,17.50
2018-02-24T09:47:34.850Z,19.10
2018-02-24T09:48:34.857Z,15.10
2018-02-24T09:49:34.876Z,14.40
2018-02-24T09:50:34.892Z,15.10
2018-02-24T09:51:34.896Z,15.70
2018-02-24T09:52:34.925Z,13.30
2018-02-24T09:53:34.939Z,16.60
2018-02-24T09:54:34.981Z,14.80
2018-02-24T09:55:34.976Z,17.80
2018-02-24T09:56:34.999Z,16.40
2018-02-24T09:57:34.991Z,16.30
2018-02-24T09:58:35.000Z,16.50
2018-02-24T09:59:35.020Z,14.60
2018-02-24T10:00:35.025Z,16.20
2018-02-24T10:01:35.052Z,13.10
2018-02-24T10:02:35.079Z,13.80
2018-02-24T10:03:35.071Z,12.10
2018-02-24T10:04:35.086Z,15.20
2018-02-24T10:05:35.102Z,13.90
2018-02-24T10:06:35.112Z,14.10
2018-02-24T10:07:35.127Z,14.30
2018-02-24T10:08:35.141Z,11.90
2018-02-24T10:09:35.161Z,11.70
2018-02-24T10:10:35.179Z,13.80
2018-02-24T10:11:35.177Z,15.40
2018-02-24T10:12:35.226Z,14.50
2018-02-24T10:13:35.208Z,14.60
2018-02-24T10:14:35.224Z,13.40
2018-02-24T10:15:35.254Z,15.50
2018-02-24T10:16:35.248Z,16.00
2018-02-24T10:17:35.270Z,16.60
2018-02-24T10:18:35.276Z,12.80
2018-02-24T10:19:35.298Z,16.70
2018-02-24T10:20:35.326Z,15.90
2018-02-24T10:21:35.329Z,12.90
2018-02-24T10:22:35.345Z,11.30
2018-02-24T10:23:35.355Z,11.20
2018-02-24T10:24:35.383Z,13.80
2018-02-24T10:25:35.400Z,15.40
2018-02-24T10:26:35.400Z,12.20
2018-02-24T10:27:35.417Z,11.50
2018-02-24T10:28:35.433Z,10.30
2018-02-24T10:29:35.441Z,14.10
2018-02-24T10:30:35.458Z,12.40
2018-02-24T10:31:35.470Z,10.70
2018-02-24T10:32:35.491Z,11.60
2018-02-24T10:33:35.500Z,10.50
2018-02-24T10:34:35.526Z,13.00
2018-02-24T10:35:35.535Z,10.20
2018-02-24T10:36:35.549Z,13.50
2018-02-24T10:37:35.568Z,11.40
2018-02-24T10:38:35.584Z,10.70
2018-02-24T10:39:35.593Z,11.10
2018-02-24T10:40:35.612Z,9.20
2018-02-24T10:41:35.632Z,10.90
2018-02-24T10:42:35.641Z,10.20
2018-02-24T10:43:35.658Z,9.90
2018-02-24T10:44:35.670Z,9.70
2018-02-24T10:45:35.687Z,11.30
2018-02-24T10:46:35.696Z,11.40
2018-02-24T10:47:35.718Z,10.70
2018-02-24T10:48:35.732Z,13.30
2018-02-24T10:49:35.746Z,10.50
2018-02-24T10:50:35.769Z,12.60
2018-02-24T10:51:35.782Z,11.70
2018-02-24T10:52:35.787Z,11.40
2018-02-24T10:53:35.806Z,10.70
2018-02-24T10:54:35.817Z,9.30
2018-02-24T10:55:35.844Z,9.60
2018-02-24T10:56:35.853Z,8.60
2018-02-24T10:57:35.891Z,11.60
2018-02-24T10:58:35.892Z,8.70
2018-02-24T10:59:35.901Z,9.10
2018-02-24T11:00:35.917Z,10.80
2018-02-24T11:01:35.936Z,8.20
2018-02-24T11:02:35.985Z,9.90
2018-02-24T11:03:35.969Z,6.70
2018-02-24T11:04:35.972Z,8.00
2018-02-24T11:05:35.990Z,10.00
2018-02-24T11:06:36.011Z,8.50
2018-02-24T11:07:36.063Z,10.70
2018-02-24T11:08:36.039Z,10.40
2018-02-24T11:09:36.060Z,6.60
2018-02-24T11:11:36.091Z,9.60
2018-02-24T11:12:36.122Z,10.70
2018-02-24T11:13:36.105Z,7.90
2018-02-24T11:14:36.120Z,10.40
2018-02-24T11:15:36.139Z,10.50
2018-02-24T11:16:36.153Z,9.40
2018-02-24T11:17:36.157Z,8.90
2018-02-24T11:18:36.173Z,8.90
2018-02-24T11:19:36.187Z,7.90
2018-02-24T11:20:36.208Z,10.30
2018-02-24T11:21:36.222Z,7.70
2018-02-24T11:22:36.226Z,9.50
2018-02-24T11:23:36.247Z,9.50
2018-02-24T11:24:36.280Z,8.90
2018-02-24T11:25:36.264Z,6.50
2018-02-24T11:26:36.286Z,6.20
2018-02-24T11:27:36.300Z,7.00
2018-02-24T11:28:36.304Z,7.80
2018-02-24T11:29:36.314Z,5.80
2018-02-24T11:30:36.327Z,8.40
2018-02-24T11:31:36.338Z,8.50
2018-02-24T11:32:36.346Z,7.10
2018-02-24T11:33:36.360Z,6.40
2018-02-24T11:34:36.382Z,8.20
2018-02-24T11:35:36.388Z,6.80
2018-02-24T11:36:36.405Z,7.40
2018-02-24T11:37:36.407Z,11.00
2018-02-24T11:38:36.424Z,17.40
2018-02-24T11:39:36.426Z,8.40
2018-02-24T11:40:36.443Z,6.80
2018-02-24T11:41:36.452Z,7.50
2018-02-24T11:42:36.478Z,7.40
2018-02-24T11:43:36.535Z,6.50
2018-02-24T11:44:36.502Z,6.70
2018-02-24T11:45:36.523Z,5.10
2018-02-24T11:46:36.540Z,8.20
2018-02-24T11:47:36.549Z,7.70
2018-02-24T11:48:36.554Z,6.30
2018-02-24T11:49:36.575Z,6.60
2018-02-24T11:50:36.590Z,8.60
2018-02-24T11:51:36.596Z,8.70
2018-02-24T11:52:36.608Z,10.80
2018-02-24T11:53:36.638Z,5.40
2018-02-24T11:54:36.644Z,6.60
2018-02-24T11:55:36.661Z,5.70
2018-02-24T11:56:36.684Z,6.40
2018-02-24T11:58:36.701Z,6.30
2018-02-24T11:59:36.725Z,5.70
2018-02-24T12:00:36.733Z,8.10
2018-02-24T12:01:36.746Z,6.00
2018-02-24T12:02:36.762Z,9.40
2018-02-24T12:03:36.771Z,5.90
2018-02-24T12:04:36.788Z,7.60
2018-02-24T12:05:36.792Z,8.60
2018-02-24T12:06:36.810Z,5.70
2018-02-24T12:07:36.846Z,5.60
2018-02-24T12:08:36.871Z,5.60
2018-02-24T12:09:36.878Z,5.30
2018-02-24T12:10:36.880Z,7.80
2018-02-24T12:11:36.895Z,6.10
2018-02-24T12:12:36.910Z,5.40
2018-02-24T12:13:36.929Z,5.30
2018-02-24T12:14:37.033Z,6.50
2018-02-24T12:15:36.942Z,10.50
2018-02-24T12:16:36.965Z,6.90
2018-02-24T12:17:36.996Z,9.80
2018-02-24T12:18:36.993Z,8.30
2018-02-24T12:19:37.002Z,6.90
2018-02-24T12:20:37.021Z,7.00
2018-02-24T12:21:37.028Z,7.40
2018-02-24T12:22:37.049Z,9.00
2018-02-24T12:23:37.047Z,8.70
2018-02-24T12:24:37.804Z,9.20
2018-02-24T12:25:37.090Z,9.40
2018-02-24T12:26:37.100Z,9.30
2018-02-24T12:27:37.098Z,7.10
2018-02-24T12:28:37.114Z,8.80
2018-02-24T12:29:37.129Z,5.60
2018-02-24T12:30:37.141Z,6.30
2018-02-24T12:31:37.154Z,7.40
2018-02-24T12:32:37.159Z,7.00
2018-02-24T12:33:37.164Z,5.70
2018-02-24T12:34:37.176Z,7.40
2018-02-24T12:35:37.194Z,7.40
2018-02-24T12:36:37.193Z,6.30
2018-02-24T12:37:37.249Z,8.30
2018-02-24T12:38:37.215Z,7.90
2018-02-24T12:39:37.228Z,6.80
2018-02-24T12:40:37.235Z,9.80
2018-02-24T12:41:37.238Z,10.00
2018-02-24T12:42:37.271Z,9.30
2018-02-24T12:43:37.331Z,8.60
2018-02-24T12:44:37.281Z,9.20
2018-02-24T12:45:37.286Z,8.00
2018-02-24T12:46:37.325Z,8.40
2018-02-24T12:47:37.327Z,7.80
2018-02-24T12:48:37.305Z,10.80
2018-02-24T12:49:37.350Z,8.60
2018-02-24T12:50:37.324Z,8.30
2018-02-24T12:51:37.340Z,13.70
2018-02-24T12:52:37.355Z,10.70
2018-02-24T12:53:37.364Z,7.90
2018-02-24T12:54:37.375Z,11.40
2018-02-24T12:55:37.381Z,9.10
2018-02-24T12:56:37.389Z,6.60
2018-02-24T12:57:37.400Z,12.70
2018-02-24T12:58:37.412Z,11.20